createdAt,value
2023-07-19T00:04:26.959Z,101148.34
2023-07-19T00:09:29.600Z,101155.22
2023-07-19T00:14:33.520Z,101144.38
2023-07-19T00:19:36.053Z,101135.44
2023-07-19T00:24:38.582Z,101141.47
2023-07-19T00:29:42.404Z,101142.88
2023-07-19T00:34:45.052Z,101144.31
2023-07-19T00:39:47.585Z,101145.00
2023-07-19T00:44:51.507Z,101139.34
2023-07-19T00:49:54.044Z,101137.44
2023-07-19T00:54:56.803Z,101134.59
2023-07-19T01:00:00.983Z,101125.69
2023-07-19T01:05:03.688Z,101121.13
2023-07-19T01:10:08.071Z,101108.72
2023-07-19T01:15:12.140Z,101106.06
2023-07-19T01:20:14.665Z,101112.28
2023-07-19T01:25:18.591Z,101119.56
2023-07-19T01:30:21.351Z,101110.81
2023-07-19T01:35:24.172Z,101100.97
2023-07-19T01:40:28.021Z,101098.34
2023-07-19T01:45:30.618Z,101086.84
2023-07-19T01:50:33.174Z,101074.41
2023-07-19T01:55:37.044Z,101079.69
2023-07-19T02:00:39.783Z,101081.41
2023-07-19T02:05:42.696Z,101061.06
2023-07-19T02:10:46.540Z,101061.88
2023-07-19T02:15:49.221Z,101051.19
2023-07-19T02:20:54.983Z,101040.53
2023-07-19T02:25:59.133Z,101046.75
2023-07-19T02:31:01.712Z,101044.13
2023-07-19T02:36:04.622Z,101038.78
2023-07-19T02:41:08.889Z,101054.59
2023-07-19T02:46:11.587Z,101051.03
2023-07-19T02:51:14.180Z,101049.31
2023-07-19T02:56:18.107Z,101037.69
2023-07-19T03:01:21.203Z,101046.44
2023-07-19T03:06:24.015Z,101051.47
2023-07-19T03:11:28.260Z,101047.84
2023-07-19T03:16:30.831Z,101051.34
2023-07-19T03:21:33.403Z,101052.13
2023-07-19T03:26:37.294Z,101064.34
2023-07-19T03:31:39.984Z,101056.34
2023-07-19T03:36:42.558Z,101053.50
2023-07-19T03:41:46.660Z,101065.75
2023-07-19T03:46:49.456Z,101065.66
2023-07-19T03:51:52.118Z,101068.28
2023-07-19T03:56:56.126Z,101083.34
2023-07-19T04:01:58.709Z,101072.66
2023-07-19T04:07:01.262Z,101082.22
2023-07-19T04:12:05.896Z,101083.88
2023-07-19T04:17:08.852Z,101077.63
2023-07-19T04:22:11.413Z,101071.31
2023-07-19T04:27:15.265Z,101059.88
2023-07-19T04:32:18.689Z,101051.00
2023-07-19T04:37:21.401Z,101052.78
2023-07-19T04:42:25.901Z,101057.34
2023-07-19T04:47:28.843Z,101047.78
2023-07-19T04:52:31.389Z,101041.47
2023-07-19T04:57:35.239Z,101030.06
2023-07-19T05:02:37.805Z,101036.38
2023-07-19T05:07:41.632Z,101027.59
2023-07-19T05:12:45.663Z,101025.91
2023-07-19T05:17:48.215Z,101038.28
2023-07-19T05:22:50.971Z,101029.41
2023-07-19T05:27:54.834Z,101040.81
2023-07-19T05:32:57.378Z,101036.09
2023-07-19T05:38:00.673Z,101036.09
2023-07-19T05:43:04.785Z,101046.81
2023-07-19T05:48:07.423Z,101038.13
2023-07-19T05:53:10.024Z,101047.13
2023-07-19T05:58:13.873Z,101041.06
2023-07-19T06:03:17.458Z,101048.19
2023-07-19T06:08:25.010Z,101038.56
2023-07-19T06:13:29.294Z,101058.06
2023-07-19T06:18:31.920Z,101058.84
2023-07-19T06:23:34.669Z,101057.78
2023-07-19T06:28:38.795Z,101055.13
2023-07-19T06:33:41.400Z,101047.84
2023-07-19T06:38:43.933Z,101039.94
2023-07-19T06:43:47.803Z,101033.84
2023-07-19T06:48:50.434Z,101016.16
2023-07-19T06:54:04.653Z,101019.88
2023-07-19T06:59:16.766Z,101022.44
2023-07-19T07:04:19.285Z,101025.97
2023-07-19T07:09:21.809Z,101041.81
2023-07-19T07:14:26.215Z,101047.00
2023-07-19T07:19:28.762Z,101041.56
2023-07-19T07:24:31.389Z,101025.38
2023-07-19T07:29:35.278Z,101016.28
2023-07-19T07:34:37.864Z,101018.88
2023-07-19T07:39:40.396Z,101023.44
2023-07-19T07:44:45.965Z,101010.22
2023-07-19T07:49:49.858Z,101033.00
2023-07-19T07:54:52.850Z,101019.56
2023-07-19T07:59:56.720Z,101016.88
2023-07-19T08:04:59.243Z,101031.78
2023-07-19T08:10:01.769Z,101038.78
2023-07-19T08:15:07.018Z,101041.38
2023-07-19T08:20:11.271Z,101051.72
2023-07-19T08:25:26.424Z,101059.56
2023-07-19T08:30:33.504Z,101044.38
2023-07-19T08:35:36.571Z,101041.63
2023-07-19T08:40:40.627Z,101046.66
2023-07-19T08:45:44.532Z,101039.09
2023-07-19T08:50:50.800Z,101028.38
2023-07-19T08:55:54.544Z,101031.19
2023-07-19T09:00:58.434Z,101028.88
2023-07-19T09:06:01.096Z,101036.13
2023-07-19T09:11:03.661Z,101028.13
2023-07-19T09:16:08.345Z,101026.13
2023-07-19T09:21:10.931Z,101038.31
2023-07-19T09:26:13.552Z,101043.63
2023-07-19T09:36:30.898Z,101042.94
2023-07-19T09:41:34.264Z,101043.97
2023-07-19T09:46:38.837Z,101028.06
2023-07-19T09:51:43.204Z,101024.63
2023-07-19T09:56:46.266Z,101013.22
2023-07-19T10:01:50.956Z,101004.75
2023-07-19T10:07:04.775Z,101006.41
2023-07-19T10:12:09.907Z,101000.88
2023-07-19T10:17:13.814Z,101002.00
2023-07-19T10:22:16.404Z,100992.31
2023-07-19T10:27:37.092Z,100992.25
2023-07-19T10:32:41.157Z,100984.75
2023-07-19T10:37:53.637Z,100986.63
2023-07-19T10:42:56.501Z,100990.63
2023-07-19T10:48:01.957Z,100994.56
2023-07-19T10:53:04.559Z,100990.63
2023-07-19T10:58:07.937Z,100992.78
2023-07-19T11:03:14.713Z,100993.13
2023-07-19T11:08:27.312Z,100985.50
2023-07-19T11:13:29.836Z,100977.28
2023-07-19T11:18:39.316Z,100976.09
2023-07-19T11:23:45.448Z,100974.78
2023-07-19T11:28:50.215Z,100980.50
2023-07-19T11:33:59.236Z,100983.28
2023-07-19T11:39:02.352Z,100982.28
2023-07-19T11:44:04.962Z,100982.53
2023-07-19T11:49:11.284Z,100984.31
2023-07-19T11:54:14.738Z,100985.28
2023-07-19T11:59:17.431Z,100992.91
2023-07-19T12:04:21.445Z,100990.88
2023-07-19T12:09:24.016Z,100978.47
2023-07-19T12:14:28.926Z,100964.06
2023-07-19T12:19:33.092Z,100965.72
2023-07-19T12:24:35.637Z,100965.34
2023-07-19T12:29:48.657Z,100974.69
2023-07-19T12:35:01.821Z,100969.28
2023-07-19T12:40:06.384Z,100967.16
2023-07-19T12:45:11.325Z,100957.34
2023-07-19T12:50:15.166Z,100957.63
2023-07-19T12:55:17.769Z,100965.78
2023-07-19T13:00:20.702Z,100957.16
2023-07-19T13:05:24.590Z,100961.69
2023-07-19T13:10:27.328Z,100960.88
2023-07-19T13:15:29.876Z,100945.91
2023-07-19T13:20:34.077Z,100948.56
2023-07-19T13:25:36.629Z,100931.13
2023-07-19T13:30:40.084Z,100927.38
2023-07-19T13:40:49.649Z,100923.50
2023-07-19T13:45:52.241Z,100930.75
2023-07-19T13:50:56.778Z,100930.84
2023-07-19T13:55:59.376Z,100930.19
2023-07-19T14:01:02.053Z,100924.53
2023-07-19T14:06:06.019Z,100919.63
2023-07-19T14:11:08.542Z,100912.91
2023-07-19T14:16:11.132Z,100906.03
2023-07-19T14:21:15.532Z,100901.50
2023-07-19T14:26:18.496Z,100899.19
2023-07-19T14:31:22.674Z,100893.63
2023-07-19T14:36:27.317Z,100891.25
2023-07-19T14:41:30.555Z,100880.50
2023-07-19T14:46:34.318Z,100884.19
2023-07-19T14:51:38.285Z,100876.00
2023-07-19T14:56:40.905Z,100857.66
2023-07-19T15:01:43.674Z,100859.75
2023-07-19T15:06:47.750Z,100844.91
2023-07-19T15:11:50.429Z,100840.72
2023-07-19T15:16:53.139Z,100846.13
2023-07-19T15:21:57.326Z,100841.63
2023-07-19T15:27:03.081Z,100838.88
2023-07-19T15:32:06.066Z,100837.72
2023-07-19T15:37:09.997Z,100830.59
2023-07-19T15:42:12.561Z,100822.66
2023-07-19T15:47:15.108Z,100819.25
2023-07-19T15:52:19.095Z,100823.56
2023-07-19T15:57:21.693Z,100817.03
2023-07-19T16:02:24.363Z,100832.09
2023-07-19T16:07:29.325Z,100819.63
2023-07-19T16:12:31.889Z,100826.59
2023-07-19T16:17:34.814Z,100821.97
2023-07-19T16:22:38.788Z,100827.22
2023-07-19T16:27:41.377Z,100821.81
2023-07-19T16:37:47.888Z,100816.44
2023-07-19T16:42:50.506Z,100816.13
2023-07-19T16:47:58.049Z,100809.63
2023-07-19T16:53:13.335Z,100810.78
2023-07-19T16:58:16.459Z,100813.50
2023-07-19T17:03:19.404Z,100811.75
2023-07-19T17:08:23.280Z,100800.16
2023-07-19T17:13:26.282Z,100806.34
2023-07-19T17:18:29.051Z,100800.69
2023-07-19T17:23:33.369Z,100803.00
2023-07-19T17:28:35.898Z,100801.03
2023-07-19T17:33:38.613Z,100792.72
2023-07-19T17:38:43.212Z,100797.81
2023-07-19T17:43:45.767Z,100795.16
2023-07-19T17:48:52.386Z,100787.06
2023-07-19T17:53:56.282Z,100781.41
2023-07-19T17:58:58.855Z,100784.66
2023-07-19T18:04:01.473Z,100781.91
2023-07-19T18:09:05.385Z,100787.38
2023-07-19T18:14:08.350Z,100786.56
2023-07-19T18:19:10.916Z,100791.78
2023-07-19T18:24:14.815Z,100796.09
2023-07-19T18:29:19.889Z,100794.34
2023-07-19T18:34:22.703Z,100787.16
2023-07-19T18:39:26.586Z,100794.16
2023-07-19T18:44:29.157Z,100801.13
2023-07-19T18:49:31.689Z,100797.34
2023-07-19T18:54:35.554Z,100805.19
2023-07-19T18:59:38.091Z,100806.91
2023-07-19T19:04:40.748Z,100811.38
2023-07-19T19:09:44.614Z,100813.84
2023-07-19T19:14:47.461Z,100822.47
2023-07-19T19:19:50.084Z,100813.41
2023-07-19T19:24:54.052Z,100814.09
2023-07-19T19:29:56.574Z,100820.00
2023-07-19T19:34:59.151Z,100817.94
2023-07-19T19:40:03.109Z,100822.91
2023-07-19T19:45:08.744Z,100824.47
2023-07-19T19:50:12.348Z,100825.94
2023-07-19T19:55:16.238Z,100832.69
2023-07-19T20:10:33.222Z,100834.03
2023-07-19T20:15:48.152Z,100837.25
2023-07-19T20:20:53.325Z,100840.38
2023-07-19T20:26:12.080Z,100838.31
2023-07-19T20:46:35.375Z,100848.59
2023-07-19T20:51:38.174Z,100847.41
2023-07-19T20:56:42.331Z,100847.28
2023-07-19T21:01:44.974Z,100839.34
2023-07-19T21:06:47.544Z,100838.66
2023-07-19T21:11:51.528Z,100839.59
2023-07-19T21:16:54.119Z,100838.66
2023-07-19T21:21:56.767Z,100836.69
2023-07-19T21:27:00.763Z,100828.31
2023-07-19T21:32:04.323Z,100830.38
2023-07-19T21:37:07.174Z,100829.97
2023-07-19T21:42:11.191Z,100836.81
2023-07-19T21:47:13.706Z,100834.81
2023-07-19T21:52:16.504Z,100835.44
2023-07-19T21:57:20.357Z,100829.06
2023-07-19T22:02:22.888Z,100830.66
2023-07-19T22:07:25.425Z,100833.19
2023-07-19T22:12:29.292Z,100837.38
2023-07-19T22:17:32.048Z,100830.94
2023-07-19T22:22:34.766Z,100825.41
2023-07-19T22:27:38.723Z,100827.78
2023-07-19T22:32:41.294Z,100830.19
2023-07-19T22:37:44.029Z,100828.38
2023-07-19T22:42:48.225Z,100833.63
2023-07-19T22:47:50.970Z,100828.28
2023-07-19T22:52:55.314Z,100826.41
2023-07-19T22:57:59.413Z,100830.75
2023-07-19T23:03:02.061Z,100828.75
2023-07-19T23:08:04.973Z,100833.00
2023-07-19T23:13:08.883Z,100834.72
2023-07-19T23:18:11.442Z,100838.13
2023-07-19T23:23:14.488Z,100844.22
2023-07-19T23:28:18.742Z,100830.03
2023-07-19T23:33:21.425Z,100833.47
2023-07-19T23:38:24.078Z,100824.63
2023-07-19T23:43:27.967Z,100823.56
2023-07-19T23:48:30.512Z,100838.31
2023-07-19T23:53:33.199Z,100838.81
2023-07-19T23:58:37.181Z,100837.94
